Haldeman, Kentucky
Current Conditions -  °F | °C
As of 1:10 AM on Sunday 23 Nov 2014 (Local Time) from KSYM Reporting Station
Overcast Overcast  
Wind Chill: 50°   Ceiling: 8500
Heat Index: 50°   Visibility: 10mi
Dew Point: 30°   Wind: 6mph
Humidity: 47%   Direction: 170°S
Pressure: 30.12"   Gusts: NA
Location:  38.25°N, 83.32°W
Report Text: KSYM 230610Z AUTO 17005KT 10SM OVC085 10/M01 A3012 RMK AO2
Loading
Personal Weather Stations






























Interactive Weather Map New forecast layout! Learn more

10-Day Weather Forecast

Advertisements
Track Severe Weather on mobile